Time;durP1;ratioP1;P1;durP2;ratioP2;P2;SDS_P1;SDS_P2;PMS_P1;PMS_P2;Temp;Humidity;BMP_temperature;BMP_pressure;BME280_temperature;BME280_humidity;BME280_pressure;Samples;Min_cycle;Max_cycle;Signal;HPM_P1;HPM_P2
2022/04/17 00:02:11;;;;;;;8.30;4.65;;;;;;;7.16;100.00;102891.44;5206838;28;20497;-70
2022/04/17 00:04:42;;;;;;;8.13;4.97;;;;;;;7.10;100.00;102883.81;5206399;28;20538;-70
2022/04/17 00:07:12;;;;;;;9.80;4.60;;;;;;;7.07;100.00;102889.31;5206512;28;20029;-70
2022/04/17 00:09:42;;;;;;;7.80;4.47;;;;;;;7.01;100.00;102890.56;5205347;28;20026;-71
2022/04/17 00:12:13;;;;;;;8.05;4.60;;;;;;;6.93;100.00;102900.84;5206421;28;20024;-70
2022/04/17 00:14:44;;;;;;;10.40;5.10;;;;;;;6.81;100.00;102882.91;5206207;28;20032;-70
2022/04/17 00:17:14;;;;;;;8.77;4.70;;;;;;;6.69;100.00;102886.31;5206344;28;20025;-70
2022/04/17 00:19:45;;;;;;;7.80;4.18;;;;;;;6.58;100.00;102886.97;5205451;28;20037;-70
2022/04/17 00:22:15;;;;;;;10.07;4.88;;;;;;;6.47;100.00;102889.38;5201611;28;20018;-70
2022/04/17 00:24:46;;;;;;;9.38;4.78;;;;;;;6.39;100.00;102883.66;5205840;28;20030;-71
2022/04/17 00:27:16;;;;;;;12.85;5.60;;;;;;;6.30;100.00;102882.38;5206490;28;20033;-70
2022/04/17 00:29:47;;;;;;;13.98;5.53;;;;;;;6.23;100.00;102881.03;5206136;28;20124;-70
2022/04/17 00:32:17;;;;;;;9.98;4.82;;;;;;;6.18;100.00;102877.75;5206130;28;20505;-71
2022/04/17 00:34:48;;;;;;;9.18;4.35;;;;;;;6.14;100.00;102878.88;5205212;28;20029;-70
2022/04/17 00:37:18;;;;;;;11.52;5.20;;;;;;;6.13;100.00;102879.81;5203983;28;20063;-70
2022/04/17 00:39:49;;;;;;;9.73;4.43;;;;;;;6.10;100.00;102872.00;5203172;28;20037;-70
2022/04/17 00:42:19;;;;;;;8.75;4.05;;;;;;;6.07;100.00;102878.34;5205675;28;20029;-70
2022/04/17 00:44:50;;;;;;;9.23;5.35;;;;;;;6.06;100.00;102878.44;5205783;28;20089;-69
2022/04/17 00:47:21;;;;;;;10.30;4.85;;;;;;;6.03;100.00;102865.31;5205265;28;20103;-70
2022/04/17 00:49:51;;;;;;;10.50;4.57;;;;;;;6.00;100.00;102862.81;5205487;28;20036;-70
2022/04/17 00:52:22;;;;;;;11.52;5.05;;;;;;;5.96;100.00;102862.97;5205534;28;20029;-70
2022/04/17 00:54:54;;;;;;;10.32;5.05;;;;;;;5.94;100.00;102859.56;5205143;28;20062;-70
2022/04/17 00:57:25;;;;;;;8.35;4.47;;;;;;;5.89;100.00;102858.91;5205361;28;20395;-70
2022/04/17 00:59:57;;;;;;;10.52;4.45;;;;;;;5.86;100.00;102855.56;5205102;28;20030;-70
2022/04/17 01:02:28;;;;;;;9.10;4.80;;;;;;;5.77;100.00;102861.41;5205768;28;20017;-70
2022/04/17 01:04:59;;;;;;;7.43;4.53;;;;;;;5.69;100.00;102857.38;5205314;28;20045;-70
2022/04/17 01:07:29;;;;;;;6.93;4.57;;;;;;;5.64;100.00;102861.25;5205456;28;20049;-70
2022/04/17 01:10:00;;;;;;;9.40;4.60;;;;;;;5.57;100.00;102855.41;5204589;28;20025;-70
2022/04/17 01:12:31;;;;;;;8.35;4.10;;;;;;;5.54;100.00;102860.88;5205176;28;20017;-70
2022/04/17 01:15:02;;;;;;;12.35;4.82;;;;;;;5.53;100.00;102858.31;5205044;28;20041;-70
2022/04/17 01:17:33;;;;;;;11.88;5.28;;;;;;;5.47;100.00;102864.81;5205650;28;20022;-69
2022/04/17 01:20:06;;;;;;;11.38;5.00;;;;;;;5.39;100.00;102851.94;5202114;28;20097;-70
2022/04/17 01:22:36;;;;;;;9.38;4.93;;;;;;;5.33;100.00;102870.06;5203747;28;20029;-69
2022/04/17 01:27:56;;;;;;;9.13;4.70;;;;;;;5.26;100.00;102865.97;5205036;28;20398;-70
2022/04/17 01:30:27;;;;;;;6.85;4.53;;;;;;;5.21;100.00;102863.56;5204982;28;20018;-70
2022/04/17 01:32:57;;;;;;;12.48;4.30;;;;;;;5.18;100.00;102866.41;5204750;28;20537;-72
2022/04/17 01:35:28;;;;;;;8.60;4.75;;;;;;;5.15;100.00;102866.56;5204609;28;20506;-69
2022/04/17 01:38:00;;;;;;;10.98;4.80;;;;;;;5.19;100.00;102857.47;5200840;28;20536;-69
2022/04/17 01:40:30;;;;;;;10.20;5.60;;;;;;;5.14;100.00;102867.50;5204927;28;20022;-70
2022/04/17 01:43:01;;;;;;;7.78;4.70;;;;;;;5.04;100.00;102868.94;5204766;28;20048;-69
2022/04/17 01:45:31;;;;;;;9.38;5.03;;;;;;;4.94;100.00;102852.59;5204218;28;20051;-69
2022/04/17 01:48:03;;;;;;;8.57;5.15;;;;;;;4.88;100.00;102856.44;5204859;28;20060;-69
2022/04/17 01:50:34;;;;;;;13.65;5.65;;;;;;;4.80;100.00;102855.97;5204507;28;20021;-68
2022/04/17 01:53:05;;;;;;;10.95;5.13;;;;;;;4.74;100.00;102858.97;5204858;28;20364;-69
2022/04/17 01:55:35;;;;;;;7.57;4.90;;;;;;;4.70;100.00;102861.84;5204300;28;20383;-69
2022/04/17 01:58:06;;;;;;;8.43;4.30;;;;;;;4.64;100.00;102865.69;5204315;28;20478;-70
2022/04/17 02:00:36;;;;;;;8.57;5.28;;;;;;;4.59;100.00;102865.06;5203303;28;20076;-71
2022/04/17 02:03:07;;;;;;;11.80;5.40;;;;;;;4.57;100.00;102864.31;5204588;28;20100;-69
2022/04/17 02:05:38;;;;;;;8.13;4.60;;;;;;;4.57;100.00;102864.31;5204030;28;20482;-69
2022/04/17 02:08:09;;;;;;;9.48;4.50;;;;;;;4.53;100.00;102865.38;5204375;28;20403;-70
2022/04/17 02:10:40;;;;;;;9.07;5.00;;;;;;;4.50;100.00;102869.03;5202923;28;20025;-70
2022/04/17 02:13:10;;;;;;;7.45;4.32;;;;;;;4.47;100.00;102868.34;5204652;28;20018;-69
2022/04/17 02:15:41;;;;;;;12.10;5.32;;;;;;;4.45;100.00;102863.09;5203696;28;20022;-69
2022/04/17 02:18:13;;;;;;;7.80;4.47;;;;;;;4.41;100.00;102861.53;5203287;28;20029;-70
2022/04/17 02:20:44;;;;;;;8.45;4.65;;;;;;;4.38;100.00;102857.25;5199142;28;20021;-69
2022/04/17 02:23:14;;;;;;;11.13;4.38;;;;;;;4.35;100.00;102862.69;5203649;28;20071;-69
2022/04/17 02:25:45;;;;;;;7.95;4.15;;;;;;;4.31;100.00;102863.78;5203966;28;20697;-70
2022/04/17 02:28:15;;;;;;;10.00;4.88;;;;;;;4.27;100.00;102854.28;5204223;28;20056;-70
2022/04/17 02:30:46;;;;;;;10.15;4.13;;;;;;;4.22;100.00;102851.00;5203827;28;20022;-69
2022/04/17 02:33:17;;;;;;;9.25;4.80;;;;;;;4.17;100.00;102853.00;5203966;28;20099;-70
2022/04/17 02:35:47;;;;;;;8.98;4.45;;;;;;;4.12;100.00;102852.38;5203853;28;20033;-70
2022/04/17 02:38:18;;;;;;;10.50;4.50;;;;;;;4.06;100.00;102847.34;5203919;28;20045;-70
2022/04/17 02:40:48;;;;;;;8.80;4.63;;;;;;;3.99;100.00;102846.78;5203706;28;20060;-69
2022/04/17 02:43:19;;;;;;;8.00;4.03;;;;;;;3.93;100.00;102847.09;5204050;28;20025;-69
2022/04/17 02:45:50;;;;;;;9.57;4.25;;;;;;;3.87;100.00;102839.44;5203308;28;20022;-71
2022/04/17 02:48:21;;;;;;;8.90;3.88;;;;;;;3.84;100.00;102840.44;5204380;28;20160;-70
2022/04/17 02:50:52;;;;;;;9.38;3.88;;;;;;;3.84;100.00;102844.88;5203833;28;20024;-70
2022/04/17 02:53:24;;;;;;;8.02;3.72;;;;;;;3.80;100.00;102841.50;5203738;28;20471;-70
2022/04/17 02:55:54;;;;;;;6.50;3.97;;;;;;;3.75;100.00;102835.56;5203853;28;20025;-70
2022/04/17 02:58:25;;;;;;;8.15;4.85;;;;;;;3.71;100.00;102828.66;5203539;28;20028;-70
2022/04/17 03:06:33;;;;;;;6.13;3.25;;;;;;;3.59;100.00;102830.13;5203541;28;20074;-70
2022/04/17 03:09:04;;;;;;;10.00;3.42;;;;;;;3.58;100.00;102843.47;5202296;28;20036;-71
2022/04/17 03:11:34;;;;;;;5.40;3.17;;;;;;;3.57;100.00;102831.16;5203700;28;20017;-70
2022/04/17 03:14:05;;;;;;;5.97;3.40;;;;;;;3.53;100.00;102826.91;5203421;28;20036;-70
2022/04/17 03:16:36;;;;;;;7.72;3.75;;;;;;;3.50;100.00;102824.38;5203410;28;20033;-70
2022/04/17 03:19:06;;;;;;;7.25;3.55;;;;;;;3.50;100.00;102825.25;5203503;28;20475;-70
2022/04/17 03:21:37;;;;;;;10.10;3.85;;;;;;;3.51;100.00;102818.13;5198163;28;20115;-70
2022/04/17 03:24:08;;;;;;;6.43;3.60;;;;;;;3.52;100.00;102822.53;5203457;28;20022;-69
2022/04/17 03:26:41;;;;;;;6.10;2.97;;;;;;;3.54;100.00;102818.00;5203214;28;20025;-70
2022/04/17 03:29:11;;;;;;;7.88;3.40;;;;;;;3.53;100.00;102818.94;5205635;28;20052;-71
2022/04/17 03:31:44;;;;;;;6.47;3.42;;;;;;;3.49;100.00;102815.56;5207008;28;20025;-71
2022/04/17 03:34:15;;;;;;;8.15;3.42;;;;;;;3.43;100.00;102817.66;5207218;28;20064;-70
2022/04/17 03:36:46;;;;;;;8.95;3.80;;;;;;;3.40;100.00;102817.78;5207375;28;20442;-70
2022/04/17 03:39:17;;;;;;;7.47;3.15;;;;;;;3.38;100.00;102816.06;5204137;28;20049;-69
2022/04/17 03:41:48;;;;;;;5.20;2.97;;;;;;;3.36;100.00;102806.44;5207727;28;20025;-69
2022/04/17 03:44:19;;;;;;;6.28;3.53;;;;;;;3.33;100.00;102809.25;5205501;28;20032;-69
2022/04/17 03:46:51;;;;;;;6.93;3.42;;;;;;;3.28;100.00;102808.63;5207292;28;20040;-69
2022/04/17 03:49:23;;;;;;;5.63;3.30;;;;;;;3.23;100.00;102803.53;5206993;28;20482;-71
2022/04/17 03:51:53;;;;;;;6.63;2.78;;;;;;;3.19;100.00;102803.72;5206927;28;20033;-70
2022/04/17 03:54:24;;;;;;;7.47;3.60;;;;;;;3.16;100.00;102807.38;5206570;28;20017;-69
2022/04/17 03:56:55;;;;;;;7.72;3.55;;;;;;;3.14;100.00;102798.63;5206665;28;20037;-69
2022/04/17 03:59:25;;;;;;;7.00;3.50;;;;;;;3.10;100.00;102807.66;5206990;28;20112;-70
2022/04/17 04:01:56;;;;;;;6.90;3.08;;;;;;;3.06;100.00;102798.13;5206808;28;20104;-69
2022/04/17 04:04:26;;;;;;;8.93;3.67;;;;;;;3.04;100.00;102802.66;5205432;28;20604;-69
2022/04/17 04:06:57;;;;;;;7.45;3.53;;;;;;;3.05;100.00;102802.56;5206684;28;20499;-69
2022/04/17 04:09:27;;;;;;;6.13;3.25;;;;;;;3.07;100.00;102799.88;5206662;28;20387;-70
2022/04/17 04:11:58;;;;;;;6.75;3.17;;;;;;;3.08;100.00;102804.22;5206580;28;20087;-70
2022/04/17 04:14:28;;;;;;;7.15;3.05;;;;;;;3.04;100.00;102803.50;5206343;28;20025;-70
2022/04/17 04:17:00;;;;;;;5.50;3.50;;;;;;;2.98;100.00;102795.84;5206708;28;20483;-69
2022/04/17 04:19:30;;;;;;;7.07;3.17;;;;;;;2.91;100.00;102796.16;5206359;28;20368;-68
2022/04/17 04:22:01;;;;;;;5.55;3.35;;;;;;;2.82;100.00;102803.63;5201291;28;20053;-69
2022/04/17 04:24:31;;;;;;;7.30;3.20;;;;;;;2.73;100.00;102793.41;5206269;28;20471;-69
2022/04/17 04:29:52;;;;;;;6.22;3.58;;;;;;;2.70;100.00;102803.28;5206228;28;20057;-69
2022/04/17 04:32:22;;;;;;;8.40;3.30;;;;;;;2.74;100.00;102795.13;5206009;28;20057;-69
2022/04/17 04:34:59;;;;;;;9.77;3.78;;;;;;;2.70;100.00;102800.63;5205843;28;20398;-69
2022/04/17 04:37:30;;;;;;;9.05;3.63;;;;;;;2.64;100.00;102801.78;5202860;28;20080;-69
2022/04/17 04:40:00;;;;;;;7.53;3.67;;;;;;;2.55;100.00;102797.72;5205426;28;20026;-69
2022/04/17 04:42:31;;;;;;;9.63;4.05;;;;;;;2.44;100.00;102793.84;5205676;28;20026;-69
2022/04/17 04:47:50;;;;;;;6.93;3.42;;;;;;;2.26;100.00;102803.41;5206046;28;20283;-69
2022/04/17 04:50:21;;;;;;;7.55;4.18;;;;;;;2.19;100.00;102794.00;5205764;28;20029;-68
2022/04/17 04:52:51;;;;;;;7.10;3.22;;;;;;;2.13;100.00;102795.13;5205834;28;20030;-69
2022/04/17 04:55:22;;;;;;;10.07;4.20;;;;;;;2.07;100.00;102800.69;5205283;28;20053;-68
2022/04/17 04:57:52;;;;;;;13.30;3.67;;;;;;;2.02;100.00;102797.38;5206167;28;20021;-68
2022/04/17 05:00:23;;;;;;;8.43;3.22;;;;;;;2.01;100.00;102791.22;5205658;28;20482;-69
2022/04/17 05:02:53;;;;;;;6.25;3.28;;;;;;;2.01;100.00;102795.66;5205727;28;20475;-69
2022/04/17 05:05:24;;;;;;;9.55;3.75;;;;;;;2.01;100.00;102801.81;5205663;28;20021;-69
2022/04/17 05:07:54;;;;;;;11.35;3.75;;;;;;;2.00;100.00;102794.78;5205374;28;20048;-68
2022/04/17 05:10:24;;;;;;;11.68;4.10;;;;;;;1.99;100.00;102793.06;5204874;28;20017;-70
2022/04/17 05:12:55;;;;;;;9.63;3.97;;;;;;;1.99;100.00;102798.34;5205518;28;20030;-69
2022/04/17 05:15:25;;;;;;;8.73;3.97;;;;;;;2.00;100.00;102802.72;5205058;28;20395;-69
2022/04/17 05:17:56;;;;;;;6.90;3.63;;;;;;;2.03;100.00;102799.09;5205163;28;20032;-69
2022/04/17 05:20:26;;;;;;;6.35;3.28;;;;;;;2.05;100.00;102803.38;5199956;28;20491;-69
2022/04/17 05:23:03;;;;;;;9.77;3.70;;;;;;;2.11;100.00;102806.69;5205454;28;20045;-69
2022/04/17 05:25:34;;;;;;;6.85;3.85;;;;;;;2.13;100.00;102802.22;5205160;28;20021;-69
2022/04/17 05:28:04;;;;;;;11.85;3.97;;;;;;;2.16;100.00;102802.06;5205207;28;20568;-69
2022/04/17 05:30:35;;;;;;;10.65;3.88;;;;;;;2.21;100.00;102810.69;5204845;28;20391;-69
2022/04/17 05:33:06;;;;;;;7.57;3.80;;;;;;;2.27;100.00;102798.06;5205157;28;20025;-69
2022/04/17 05:35:37;;;;;;;14.63;4.53;;;;;;;2.36;100.00;102802.13;5205021;28;20035;-69
2022/04/17 05:38:08;;;;;;;6.57;3.50;;;;;;;2.44;100.00;102796.47;5200833;28;20025;-69
2022/04/17 05:40:41;;;;;;;6.82;3.40;;;;;;;2.53;100.00;102796.09;5205238;28;20071;-68
2022/04/17 05:43:12;;;;;;;7.55;3.40;;;;;;;2.64;100.00;102796.47;5205129;28;20032;-68
2022/04/17 05:45:43;;;;;;;6.40;3.10;;;;;;;2.77;100.00;102796.81;5204991;28;20020;-69
2022/04/17 05:48:13;;;;;;;7.72;3.65;;;;;;;2.90;100.00;102794.44;5204942;28;20025;-69
2022/04/17 05:50:44;;;;;;;7.85;3.45;;;;;;;3.19;100.00;102790.47;5204451;28;20021;-69
2022/04/17 05:53:15;;;;;;;6.63;3.13;;;;;;;4.02;100.00;102798.00;5204985;28;20021;-69
2022/04/17 05:55:45;;;;;;;7.50;3.08;;;;;;;5.15;100.00;102795.59;5203917;28;20029;-69
2022/04/17 05:58:16;;;;;;;9.23;3.50;;;;;;;6.25;100.00;102785.81;5205168;28;20387;-69
2022/04/17 06:00:46;;;;;;;5.80;3.13;;;;;;;7.37;100.00;102785.09;5204473;28;20026;-69
2022/04/17 06:03:17;;;;;;;6.18;2.92;;;;;;;8.16;100.00;102791.53;5204603;28;20093;-70
2022/04/17 06:05:48;;;;;;;7.07;3.13;;;;;;;8.89;100.00;102782.97;5204274;28;20104;-69
2022/04/17 06:08:19;;;;;;;5.05;3.40;;;;;;;9.37;100.00;102791.13;5204313;28;20368;-72
2022/04/17 06:10:50;;;;;;;5.43;3.38;;;;;;;9.88;100.00;102793.63;5202617;28;20086;-70
2022/04/17 06:13:21;;;;;;;5.28;3.30;;;;;;;10.35;95.53;102801.66;5204468;28;20032;-70
2022/04/17 06:15:51;;;;;;;4.85;3.22;;;;;;;10.51;92.17;102795.97;5204283;28;20488;-70
2022/04/17 06:18:22;;;;;;;5.70;3.13;;;;;;;10.85;86.73;102798.72;5203985;28;20504;-70
2022/04/17 06:20:52;;;;;;;6.50;3.35;;;;;;;10.88;85.30;102801.16;5203729;28;20022;-70
2022/04/17 06:23:23;;;;;;;7.85;3.80;;;;;;;11.26;82.46;102789.19;5204443;28;20071;-70
2022/04/17 06:25:53;;;;;;;7.00;3.72;;;;;;;11.38;86.60;102790.88;5203731;28;20418;-70
2022/04/17 06:28:24;;;;;;;9.18;3.38;;;;;;;11.65;84.12;102791.34;5204239;28;20029;-70
2022/04/17 06:30:54;;;;;;;10.43;3.67;;;;;;;12.09;78.08;102785.94;5204012;28;20067;-70
2022/04/17 06:33:25;;;;;;;9.05;3.65;;;;;;;12.18;77.13;102787.88;5203839;28;20057;-71
2022/04/17 06:35:55;;;;;;;4.88;3.35;;;;;;;12.27;79.67;102786.25;5203996;28;20108;-71
2022/04/17 06:38:26;;;;;;;14.52;3.38;;;;;;;12.53;76.27;102781.31;5200485;28;20028;-70
2022/04/17 06:40:56;;;;;;;6.93;3.55;;;;;;;12.77;73.07;102784.56;5204230;28;20506;-69
2022/04/17 06:43:26;;;;;;;4.65;2.97;;;;;;;13.09;72.95;102789.81;5204562;28;20048;-70
2022/04/17 06:45:57;;;;;;;5.55;2.80;;;;;;;13.32;72.11;102784.28;5203764;28;20045;-71
2022/04/17 06:48:27;;;;;;;4.72;2.90;;;;;;;13.44;69.60;102783.16;5203885;28;20042;-70
2022/04/17 06:50:58;;;;;;;3.67;2.80;;;;;;;13.49;65.72;102778.22;5204055;28;20033;-70
2022/04/17 06:53:28;;;;;;;6.47;3.03;;;;;;;13.47;65.32;102782.91;5204468;28;20037;-70
2022/04/17 06:55:59;;;;;;;6.20;3.53;;;;;;;13.71;63.59;102779.84;5204083;28;20139;-69
2022/04/17 06:58:29;;;;;;;6.85;3.45;;;;;;;13.95;62.72;102790.19;5204510;28;20029;-70
2022/04/17 07:01:00;;;;;;;4.03;2.90;;;;;;;13.98;62.09;102779.97;5204385;28;20438;-70
2022/04/17 07:03:30;;;;;;;5.70;3.33;;;;;;;13.92;61.33;102785.09;5205015;28;20053;-70
2022/04/17 07:06:01;;;;;;;4.88;3.00;;;;;;;14.01;60.45;102781.56;5213816;28;20048;-69
2022/04/17 07:08:31;;;;;;;4.60;3.08;;;;;;;14.03;60.75;102778.72;5213504;28;20032;-70
2022/04/17 07:11:02;;;;;;;4.13;3.15;;;;;;;14.09;60.56;102767.34;5208258;28;20037;-70
2022/04/17 07:13:32;;;;;;;7.82;3.55;;;;;;;14.35;62.97;102776.53;5208003;28;20116;-70
2022/04/17 07:16:04;;;;;;;5.13;3.22;;;;;;;14.72;58.75;102767.69;5207598;28;20021;-70
2022/04/17 07:18:34;;;;;;;5.78;3.08;;;;;;;14.62;58.25;102772.28;5207545;28;20021;-70
2022/04/17 07:21:05;;;;;;;5.72;3.30;;;;;;;14.54;55.88;102764.03;5202523;28;20371;-70
2022/04/17 07:23:36;;;;;;;5.78;2.85;;;;;;;14.84;56.40;102769.22;5207943;28;20048;-70
2022/04/17 07:26:06;;;;;;;5.20;2.88;;;;;;;14.65;55.37;102766.56;5207310;28;20049;-70
2022/04/17 07:28:37;;;;;;;3.92;3.10;;;;;;;14.77;57.02;102770.81;5207302;28;20173;-70
2022/04/17 07:31:08;;;;;;;7.55;3.28;;;;;;;14.98;53.12;102760.63;5207407;28;20029;-70
2022/04/17 07:33:38;;;;;;;4.93;2.97;;;;;;;14.53;55.84;102763.19;5207161;28;20027;-70
2022/04/17 07:36:09;;;;;;;5.88;2.80;;;;;;;14.89;55.82;102758.81;5207134;28;20029;-70
2022/04/17 07:38:40;;;;;;;6.72;2.58;;;;;;;14.78;56.54;102759.00;5203563;28;20053;-71
2022/04/17 07:41:10;;;;;;;3.50;2.83;;;;;;;15.00;52.90;102747.81;5207198;28;20026;-70
2022/04/17 07:43:41;;;;;;;11.88;3.00;;;;;;;15.23;58.31;102753.69;5207313;28;20500;-71
2022/04/17 07:46:11;;;;;;;3.75;2.50;;;;;;;15.49;53.75;102745.69;5206430;28;20116;-71
2022/04/17 07:48:42;;;;;;;2.63;2.42;;;;;;;15.79;52.40;102749.91;5207305;28;20148;-71
2022/04/17 07:51:12;;;;;;;4.82;2.60;;;;;;;16.03;51.44;102743.88;5206914;28;20021;-71
2022/04/17 07:53:43;;;;;;;6.38;2.58;;;;;;;16.24;55.56;102738.13;5205889;28;20148;-71
2022/04/17 07:56:13;;;;;;;4.40;2.92;;;;;;;16.07;50.05;102736.31;5206746;28;20080;-71
2022/04/17 07:58:44;;;;;;;4.90;2.60;;;;;;;15.25;51.50;102740.00;5207084;28;20184;-71
2022/04/17 08:01:16;;;;;;;5.60;3.00;;;;;;;14.96;52.08;102730.22;5207183;28;20018;-71
2022/04/17 08:03:46;;;;;;;5.20;2.78;;;;;;;14.72;53.44;102733.44;5206744;28;20553;-71
2022/04/17 08:06:20;;;;;;;5.30;2.83;;;;;;;15.39;53.95;102725.97;5206652;28;20017;-71
2022/04/17 08:08:52;;;;;;;4.97;2.33;;;;;;;15.73;52.61;102722.63;5205547;28;20092;-71
2022/04/17 08:11:24;;;;;;;4.85;3.15;;;;;;;15.79;51.14;102722.84;5207125;28;20210;-71
2022/04/17 08:13:55;;;;;;;5.68;2.72;;;;;;;15.94;48.48;102722.31;5206477;28;20079;-71
2022/04/17 08:16:25;;;;;;;3.65;2.67;;;;;;;15.51;50.20;102715.78;5205037;28;20364;-71
2022/04/17 08:18:56;;;;;;;5.57;2.88;;;;;;;16.01;49.54;102718.84;5206562;28;20040;-71
2022/04/17 08:21:26;;;;;;;5.93;2.40;;;;;;;16.67;49.78;102714.72;5201060;28;20028;-71
2022/04/17 08:24:00;;;;;;;3.30;2.60;;;;;;;16.89;49.34;102726.03;5206627;28;20049;-71
2022/04/17 08:26:30;;;;;;;4.65;2.60;;;;;;;16.87;48.04;102717.19;5206154;28;20033;-71
2022/04/17 08:29:01;;;;;;;7.43;2.97;;;;;;;16.85;48.01;102730.06;5206445;28;20103;-71
2022/04/17 08:31:31;;;;;;;4.30;2.88;;;;;;;16.88;48.06;102714.34;5206083;28;20104;-71
2022/04/17 08:34:02;;;;;;;6.47;3.05;;;;;;;16.89;47.09;102718.75;5205950;28;20040;-71
2022/04/17 08:36:32;;;;;;;5.32;2.80;;;;;;;17.32;46.87;102719.59;5206095;28;20071;-71
2022/04/17 08:39:03;;;;;;;3.30;2.50;;;;;;;17.28;46.02;102721.78;5201396;28;20096;-71
2022/04/17 08:41:33;;;;;;;6.63;3.30;;;;;;;18.01;48.48;102722.91;5206227;28;20057;-71
2022/04/17 08:44:04;;;;;;;4.55;2.88;;;;;;;17.92;44.15;102724.78;5206119;28;20021;-71
2022/04/17 08:46:34;;;;;;;5.72;3.20;;;;;;;17.55;49.55;102720.63;5205872;28;20030;-71
2022/04/17 08:49:06;;;;;;;3.63;2.38;;;;;;;17.85;45.60;102713.75;5206023;28;20021;-71
2022/04/17 08:51:39;;;;;;;3.95;2.50;;;;;;;17.75;43.25;102717.66;5205949;28;20053;-71
2022/04/17 08:54:12;;;;;;;3.90;2.63;;;;;;;17.75;44.91;102715.78;5205543;28;20033;-71
2022/04/17 08:56:43;;;;;;;4.10;2.35;;;;;;;16.83;49.06;102712.09;5205636;28;20028;-71
2022/04/17 08:59:15;;;;;;;4.28;2.30;;;;;;;16.81;45.58;102702.44;5205627;28;20387;-71
2022/04/17 09:01:46;;;;;;;3.28;2.47;;;;;;;17.50;44.69;102706.72;5205704;28;20096;-71
2022/04/17 09:04:16;;;;;;;3.33;2.50;;;;;;;17.88;44.69;102706.31;5205486;28;20105;-72
2022/04/17 09:06:48;;;;;;;3.30;2.35;;;;;;;17.61;44.37;102705.53;5205554;28;20059;-71
2022/04/17 09:09:19;;;;;;;7.47;2.70;;;;;;;17.94;43.03;102708.34;5203287;28;20037;-71
2022/04/17 09:11:54;;;;;;;5.22;3.53;;;;;;;18.30;44.73;102712.38;5205492;28;20479;-71
2022/04/17 09:14:25;;;;;;;3.70;2.83;;;;;;;18.14;42.27;102701.53;5205050;28;20475;-71
2022/04/17 09:16:55;;;;;;;7.13;3.42;;;;;;;18.46;41.13;102708.75;5205540;28;20028;-71
2022/04/17 09:19:26;;;;;;;4.53;2.80;;;;;;;18.68;42.22;102696.34;5205660;28;20025;-71
2022/04/17 09:21:57;;;;;;;4.47;3.05;;;;;;;18.68;40.90;102698.19;5200203;28;20037;-71
2022/04/17 09:24:28;;;;;;;3.33;2.45;;;;;;;18.41;41.55;102697.56;5205202;28;20013;-71
2022/04/17 09:26:59;;;;;;;4.40;3.03;;;;;;;18.14;40.03;102693.38;5204816;28;20384;-72
2022/04/17 09:29:33;;;;;;;4.53;2.75;;;;;;;17.39;44.06;102689.91;5205156;28;20017;-71
2022/04/17 09:32:04;;;;;;;5.85;3.22;;;;;;;17.21;45.35;102677.31;5205111;28;20108;-71
2022/04/17 09:34:49;;;;;;;3.88;2.90;;;;;;;17.25;44.75;102675.13;5204445;28;20482;-71
2022/04/17 09:37:21;;;;;;;4.80;3.03;;;;;;;17.83;42.88;102675.06;5203489;28;20026;-72
2022/04/17 09:39:52;;;;;;;4.75;3.15;;;;;;;17.89;46.46;102676.25;5202523;28;20037;-72
2022/04/17 09:42:24;;;;;;;8.75;3.80;;;;;;;17.68;43.99;102671.31;5204994;28;20379;-71
2022/04/17 09:44:55;;;;;;;6.03;3.42;;;;;;;17.95;40.99;102659.28;5204164;28;20025;-73
2022/04/17 09:47:26;;;;;;;4.55;3.63;;;;;;;18.19;44.41;102663.84;5205109;28;20502;-72
2022/04/17 09:49:59;;;;;;;4.10;3.13;;;;;;;17.75;45.80;102661.47;5204880;28;20071;-72
2022/04/17 09:52:32;;;;;;;6.75;3.72;;;;;;;17.79;42.61;102660.13;5204649;28;20479;-72
2022/04/17 09:55:03;;;;;;;5.63;3.70;;;;;;;18.11;44.57;102659.25;5204054;28;20022;-72
2022/04/17 09:57:35;;;;;;;7.10;3.70;;;;;;;18.44;42.19;102647.47;5204435;28;20021;-72
2022/04/17 10:00:19;;;;;;;8.30;3.58;;;;;;;18.35;44.07;102644.78;5204808;28;20032;-72
2022/04/17 10:02:50;;;;;;;6.25;3.55;;;;;;;17.91;44.35;102643.50;5204717;28;20532;-72
2022/04/17 10:05:21;;;;;;;4.90;3.35;;;;;;;17.99;42.99;102635.34;5204169;28;20025;-72
2022/04/17 10:07:53;;;;;;;6.68;3.70;;;;;;;17.71;43.25;102638.38;5204242;28;20033;-72
2022/04/17 10:10:23;;;;;;;4.60;3.58;;;;;;;17.16;47.58;102633.56;5202625;28;20044;-72
2022/04/17 10:12:54;;;;;;;7.28;3.80;;;;;;;17.07;46.49;102631.88;5204305;28;20025;-72
2022/04/17 10:15:24;;;;;;;6.03;3.75;;;;;;;17.19;45.58;102635.13;5203956;28;20056;-72
2022/04/17 10:17:59;;;;;;;9.30;4.00;;;;;;;16.97;47.00;102621.19;5204208;28;20096;-72
2022/04/17 10:20:30;;;;;;;6.57;3.83;;;;;;;17.22;46.49;102619.38;5199390;28;20025;-72
2022/04/17 10:23:05;;;;;;;9.07;3.72;;;;;;;17.43;46.52;102623.47;5204335;28;20025;-72
2022/04/17 10:25:39;;;;;;;9.63;3.43;;;;;;;17.78;47.16;102615.00;5203905;28;20032;-72
2022/04/17 10:28:10;;;;;;;10.35;3.92;;;;;;;17.59;47.01;102616.16;5203913;28;20100;-72
2022/04/17 10:31:14;;;;;;;4.30;3.50;;;;;;;17.93;46.46;102612.44;5203577;28;20026;-72
2022/04/17 10:34:22;;;;;;;5.53;3.78;;;;;;;17.84;45.21;102602.63;5204401;28;20079;-72
2022/04/17 10:37:30;;;;;;;7.10;3.65;;;;;;;17.94;44.00;102597.00;5191539;28;20052;-72
2022/04/17 10:40:01;;;;;;;4.18;3.25;;;;;;;18.16;46.87;102593.53;5190524;28;20029;-72
2022/04/17 10:42:35;;;;;;;6.65;3.25;;;;;;;18.03;45.34;102587.81;5203845;28;20386;-72
2022/04/17 10:45:08;;;;;;;4.55;3.42;;;;;;;18.02;41.01;102581.56;5203294;28;20395;-72
2022/04/17 10:47:38;;;;;;;9.45;3.40;;;;;;;18.15;44.20;102572.84;5203824;28;20025;-72
2022/04/17 10:50:09;;;;;;;4.60;3.00;;;;;;;18.22;45.82;102570.25;5203770;28;20022;-72
2022/04/17 10:52:41;;;;;;;4.28;3.08;;;;;;;18.06;43.23;102565.72;5203653;28;20074;-72
2022/04/17 10:55:14;;;;;;;5.97;2.78;;;;;;;17.70;48.02;102566.13;5203545;28;20021;-72
2022/04/17 10:57:47;;;;;;;6.13;3.60;;;;;;;17.45;45.26;102557.16;5203327;28;20491;-72
2022/04/17 11:09:20;;;;;;;6.78;2.78;;;;;;;18.19;40.38;102536.16;5191523;28;20462;-73
2022/04/17 11:11:51;;;;;;;7.72;3.60;;;;;;;18.33;38.33;102537.31;5205197;28;20127;-72
2022/04/17 11:14:23;;;;;;;4.47;3.33;;;;;;;18.53;41.73;102530.41;5204332;28;20036;-72
2022/04/17 11:16:56;;;;;;;5.20;3.28;;;;;;;18.55;40.36;102524.78;5204430;28;20387;-72
2022/04/17 11:19:32;;;;;;;4.07;2.97;;;;;;;18.79;40.76;102526.56;5204237;28;20057;-72
2022/04/17 11:22:05;;;;;;;6.30;3.15;;;;;;;18.66;40.65;102515.38;5199507;28;20026;-72
2022/04/17 11:24:54;;;;;;;6.18;3.72;;;;;;;18.99;42.52;102516.06;5203711;28;20124;-72
2022/04/17 11:28:03;;;;;;;11.73;3.92;;;;;;;19.28;40.81;102512.59;5203719;28;20041;-72
2022/04/17 11:30:34;;;;;;;3.92;3.38;;;;;;;18.95;39.15;102506.56;5192587;28;20041;-72
2022/04/17 11:33:06;;;;;;;5.65;3.25;;;;;;;18.95;44.42;102501.13;5202878;28;20052;-72
2022/04/17 11:35:40;;;;;;;4.50;3.00;;;;;;;18.89;43.26;102500.81;5203274;28;20058;-72
2022/04/17 11:38:10;;;;;;;3.38;2.67;;;;;;;18.82;42.87;102501.69;5200058;28;20526;-72
2022/04/17 11:40:44;;;;;;;6.05;3.40;;;;;;;18.95;44.48;102492.97;5203215;28;20113;-72
2022/04/17 11:43:16;;;;;;;4.30;2.65;;;;;;;19.19;40.94;102492.75;5203298;28;20426;-72
2022/04/17 11:45:47;;;;;;;3.83;2.45;;;;;;;19.34;37.82;102477.31;5202859;28;20426;-73
2022/04/17 11:48:18;;;;;;;4.68;2.65;;;;;;;19.37;39.87;102482.38;5203422;28;20490;-72
2022/04/17 11:51:18;;;;;;;3.58;2.72;;;;;;;19.41;37.99;102466.53;5204373;28;20033;-72
2022/04/17 11:53:48;;;;;;;3.97;2.13;;;;;;;19.28;35.08;102460.88;5206883;28;20075;-72
2022/04/17 11:56:19;;;;;;;4.47;2.42;;;;;;;19.49;35.37;102466.44;5206694;28;20025;-72
2022/04/17 11:58:49;;;;;;;4.10;2.00;;;;;;;19.52;34.88;102457.06;5206816;28;20035;-72
2022/04/17 12:01:38;;;;;;;3.53;2.42;;;;;;;19.60;39.05;102451.56;5207032;28;20336;-72
2022/04/17 12:04:19;;;;;;;4.13;2.25;;;;;;;19.77;36.23;102444.88;5206390;28;20040;-72
2022/04/17 12:06:55;;;;;;;2.53;2.20;;;;;;;20.05;36.56;102433.31;5206814;28;20047;-72
2022/04/17 12:09:26;;;;;;;5.18;2.40;;;;;;;19.82;37.14;102425.25;5193620;28;20057;-72